Terrington Saint Clement, United Kingdom
Current Conditions -  °F | °C
As of 9:50 AM on Friday 19 Dec 2014 (Local Time) from EGYM Reporting Station
Clear Clear  
Wind Chill: 36°   Ceiling: Unl
Heat Index: 43°   Visibility: 6mi
Dew Point: 37°   Wind: 14mph
Humidity: 81%   Direction: 250°WSW
Pressure: 29.85"   Gusts: NA
Location:  52.75°N, 0.3°E
Report Text: EGYM 190950Z AUTO 25012KT 9999 NCD 06/03 Q1011
Loading
Personal Weather Stations






























Interactive Weather Map New forecast layout! Learn more

10-Day Weather Forecast

Advertisements
Track Severe Weather on mobile